Aeroporto :
LOGIN :

Iscrizione | Disclaimer

   EN    FR    IT 

 










Sommario :    VFR   VFR Marginale   IFR   IFR Intensivo   IFR Molto Intensivo
Visibilità : 
Base nubi : 
>= 8 km
>= 3000ft
5 / 8 km
1000 / 3000 ft
1500m / 5 km
500 / 1000 ft
800 / 1500m
200 / 500 ft
< 800m
< 200 ft
Simboli :   Temporali  Nebbia  Neve Forte  Precipitazioni Forti  Vento > 20 kt
SIGMETs :   Varie  Temporali  Ghiacco  Turbolenza  Onda orograficha  Ceneri Vulcaniche






- Altitudine del aeroporto : 256 ft
- Codice IATA : CFR


LFRK - Caen

ULTIMO METAR :
  • 021200Z AUTO 29005KT 5000 BR BKN024 BKN031 OVC044 04/03 Q1022 TEMPO BKN014

METARs OBSOLETI :
  • 021130Z AUTO 29002KT 5000 BR OVC028 03/03 Q1022 TEMPO BKN014 BECMG 05012KT
  • 021100Z AUTO 28002KT 5000 BR OVC032 03/02 Q1023 TEMPO BKN014
  • 021030Z AUTO 26002KT 3400 BR OVC031 03/02 Q1023 TEMPO BKN014 BECMG 6000 NSW
  • 021000Z AUTO VRB02KT 4800 BR OVC034 02/02 Q1023 TEMPO BKN014 BECMG 6000 NSW
  • 020930Z AUTO 26002KT 4200 BR OVC034 01/01 Q1023 TEMPO BKN014 BECMG 6000 NSW

TAF TAF LFRK
Valido dal 02 a 12 ore il 02 a 21 ore UTC


021100Z 0212/0221 VRB03KT 7000 BKN035
PROB40
TEMPO 0212/0221 -SHRA BKN014
BECMG 0216/0218 05013KT
PROB40
TEMPO 0218/0220 06015G25KT
Met : +33 2 31 26 68 11



MetMap, La meteo Aeronautica in un colpo d'occhio ! - Copyright ORBIFLY Dicembre 2007 - Disclaimer

ORBIFLY MET'MAP TEAM :

Programmazione e sviluppo : Alexandra Zaïnal
Concezione : Baudouin d'Aumeries
Supporto tecnico e logistico : Manuel Goepfert
Aiuto : Marc-Olivier Méhu
Aiuto per la traduzione : Arnaldo La Scala




FONTI E CREDITI :

   NOAA